sensor_id;sensor_type;location;lat;lon;timestamp;pressure;altitude;pressure_sealevel;temperature;humidity
68873;BME280;55907;50.806;12.882;2023-04-21T00:01:59;973.8;;;9.0;82.0
68873;BME280;55907;50.806;12.882;2023-04-21T00:05:00;973.8;;;9.0;81.9
68873;BME280;55907;50.806;12.882;2023-04-21T00:08:02;973.8;;;9.0;81.7
68873;BME280;55907;50.806;12.882;2023-04-21T00:11:03;973.8;;;8.9;81.7
68873;BME280;55907;50.806;12.882;2023-04-21T00:14:05;973.7;;;8.9;81.7
68873;BME280;55907;50.806;12.882;2023-04-21T00:17:06;973.7;;;8.8;82.0
68873;BME280;55907;50.806;12.882;2023-04-21T00:20:09;973.7;;;8.8;82.1
68873;BME280;55907;50.806;12.882;2023-04-21T00:23:09;973.6;;;8.8;82.3
68873;BME280;55907;50.806;12.882;2023-04-21T00:26:11;973.6;;;8.7;82.5
68873;BME280;55907;50.806;12.882;2023-04-21T00:29:12;973.7;;;8.7;82.7
68873;BME280;55907;50.806;12.882;2023-04-21T00:32:14;973.7;;;8.7;82.7
68873;BME280;55907;50.806;12.882;2023-04-21T00:35:15;973.6;;;8.6;82.8
68873;BME280;55907;50.806;12.882;2023-04-21T00:38:17;973.6;;;8.6;82.7
68873;BME280;55907;50.806;12.882;2023-04-21T00:41:18;973.6;;;8.6;82.8
68873;BME280;55907;50.806;12.882;2023-04-21T00:44:20;973.6;;;8.5;82.9
68873;BME280;55907;50.806;12.882;2023-04-21T00:47:22;973.5;;;8.4;83.4
68873;BME280;55907;50.806;12.882;2023-04-21T00:50:23;973.5;;;8.3;83.7
68873;BME280;55907;50.806;12.882;2023-04-21T00:53:25;973.4;;;8.2;84.5
68873;BME280;55907;50.806;12.882;2023-04-21T00:56:27;973.4;;;8.1;84.6
68873;BME280;55907;50.806;12.882;2023-04-21T00:59:28;973.4;;;8.1;84.9
68873;BME280;55907;50.806;12.882;2023-04-21T01:02:29;973.4;;;8.0;85.0
68873;BME280;55907;50.806;12.882;2023-04-21T01:05:31;973.4;;;7.9;85.1
68873;BME280;55907;50.806;12.882;2023-04-21T01:08:33;973.4;;;7.8;85.9
68873;BME280;55907;50.806;12.882;2023-04-21T01:11:34;973.4;;;7.8;85.7
68873;BME280;55907;50.806;12.882;2023-04-21T01:14:37;973.3;;;7.8;86.1
68873;BME280;55907;50.806;12.882;2023-04-21T01:17:37;973.3;;;7.7;86.0
68873;BME280;55907;50.806;12.882;2023-04-21T01:20:39;973.3;;;7.7;86.3
68873;BME280;55907;50.806;12.882;2023-04-21T01:23:40;973.3;;;7.6;86.9
68873;BME280;55907;50.806;12.882;2023-04-21T01:26:42;973.3;;;7.6;86.7
68873;BME280;55907;50.806;12.882;2023-04-21T01:29:44;973.4;;;7.6;86.9
68873;BME280;55907;50.806;12.882;2023-04-21T01:32:45;973.4;;;7.6;87.2
68873;BME280;55907;50.806;12.882;2023-04-21T01:35:46;973.3;;;7.5;87.3
68873;BME280;55907;50.806;12.882;2023-04-21T01:38:48;973.4;;;7.5;87.0
68873;BME280;55907;50.806;12.882;2023-04-21T01:41:49;973.3;;;7.4;87.3
68873;BME280;55907;50.806;12.882;2023-04-21T01:44:52;973.3;;;7.5;86.8
68873;BME280;55907;50.806;12.882;2023-04-21T01:47:52;973.3;;;7.4;86.9
68873;BME280;55907;50.806;12.882;2023-04-21T01:50:54;973.3;;;7.4;87.1
68873;BME280;55907;50.806;12.882;2023-04-21T01:53:55;973.3;;;7.3;87.1
68873;BME280;55907;50.806;12.882;2023-04-21T01:56:57;973.3;;;7.3;87.1
68873;BME280;55907;50.806;12.882;2023-04-21T01:59:58;973.3;;;7.3;87.2
68873;BME280;55907;50.806;12.882;2023-04-21T02:03:00;973.4;;;7.3;87.4
68873;BME280;55907;50.806;12.882;2023-04-21T02:06:02;973.3;;;7.2;87.4
68873;BME280;55907;50.806;12.882;2023-04-21T02:09:03;973.4;;;7.2;87.5
68873;BME280;55907;50.806;12.882;2023-04-21T02:12:05;973.2;;;7.2;88.6
68873;BME280;55907;50.806;12.882;2023-04-21T02:15:07;973.3;;;7.2;88.5
68873;BME280;55907;50.806;12.882;2023-04-21T02:18:08;973.3;;;7.2;88.5
68873;BME280;55907;50.806;12.882;2023-04-21T02:21:09;973.2;;;7.4;88.4
68873;BME280;55907;50.806;12.882;2023-04-21T02:24:11;973.2;;;7.6;87.8
68873;BME280;55907;50.806;12.882;2023-04-21T02:27:12;973.2;;;7.8;87.0
68873;BME280;55907;50.806;12.882;2023-04-21T02:33:15;973.3;;;8.1;85.5
68873;BME280;55907;50.806;12.882;2023-04-21T02:36:17;973.3;;;8.2;84.8
68873;BME280;55907;50.806;12.882;2023-04-21T02:39:18;973.3;;;8.3;84.3
68873;BME280;55907;50.806;12.882;2023-04-21T02:42:20;973.3;;;8.3;83.7
68873;BME280;55907;50.806;12.882;2023-04-21T02:45:22;973.4;;;8.3;83.3
68873;BME280;55907;50.806;12.882;2023-04-21T02:48:23;973.3;;;8.3;83.3
68873;BME280;55907;50.806;12.882;2023-04-21T02:51:25;973.3;;;8.3;83.4
68873;BME280;55907;50.806;12.882;2023-04-21T02:54:26;973.3;;;8.2;83.6
68873;BME280;55907;50.806;12.882;2023-04-21T02:57:28;973.3;;;8.1;83.4
68873;BME280;55907;50.806;12.882;2023-04-21T03:00:29;973.3;;;8.1;84.1
68873;BME280;55907;50.806;12.882;2023-04-21T03:03:31;973.3;;;8.2;83.7
68873;BME280;55907;50.806;12.882;2023-04-21T03:06:32;973.3;;;8.2;83.1
68873;BME280;55907;50.806;12.882;2023-04-21T03:09:34;973.3;;;8.2;83.0
68873;BME280;55907;50.806;12.882;2023-04-21T03:12:35;973.3;;;8.2;83.2
68873;BME280;55907;50.806;12.882;2023-04-21T03:15:37;973.3;;;8.1;83.1
68873;BME280;55907;50.806;12.882;2023-04-21T03:18:38;973.3;;;8.0;83.3
68873;BME280;55907;50.806;12.882;2023-04-21T03:21:40;973.4;;;7.9;83.9
68873;BME280;55907;50.806;12.882;2023-04-21T03:24:41;973.3;;;7.8;84.5
68873;BME280;55907;50.806;12.882;2023-04-21T03:27:43;973.3;;;7.7;84.5
68873;BME280;55907;50.806;12.882;2023-04-21T03:30:44;973.3;;;7.7;85.1
68873;BME280;55907;50.806;12.882;2023-04-21T03:33:46;973.3;;;7.7;85.2
68873;BME280;55907;50.806;12.882;2023-04-21T03:36:47;973.4;;;7.7;85.2
68873;BME280;55907;50.806;12.882;2023-04-21T03:39:49;973.4;;;7.8;85.4
68873;BME280;55907;50.806;12.882;2023-04-21T03:42:50;973.4;;;7.9;84.4
68873;BME280;55907;50.806;12.882;2023-04-21T03:45:52;973.3;;;8.0;84.4
68873;BME280;55907;50.806;12.882;2023-04-21T03:48:54;973.3;;;8.2;83.7
68873;BME280;55907;50.806;12.882;2023-04-21T03:51:55;973.3;;;8.3;83.3
68873;BME280;55907;50.806;12.882;2023-04-21T03:54:57;973.3;;;8.4;82.5
68873;BME280;55907;50.806;12.882;2023-04-21T03:57:58;973.2;;;8.5;82.1
68873;BME280;55907;50.806;12.882;2023-04-21T04:01:00;973.2;;;8.5;82.0
68873;BME280;55907;50.806;12.882;2023-04-21T04:04:01;973.2;;;8.6;81.8
68873;BME280;55907;50.806;12.882;2023-04-21T04:07:03;973.4;;;8.7;81.4
68873;BME280;55907;50.806;12.882;2023-04-21T04:10:05;973.4;;;8.8;80.6
68873;BME280;55907;50.806;12.882;2023-04-21T04:13:06;973.4;;;8.9;80.4
68873;BME280;55907;50.806;12.882;2023-04-21T04:16:07;973.4;;;8.9;80.1
68873;BME280;55907;50.806;12.882;2023-04-21T04:19:09;973.4;;;9.0;79.8
68873;BME280;55907;50.806;12.882;2023-04-21T04:22:10;973.4;;;9.1;79.4
68873;BME280;55907;50.806;12.882;2023-04-21T04:25:12;973.4;;;9.0;79.3
68873;BME280;55907;50.806;12.882;2023-04-21T04:28:13;973.3;;;9.1;79.1
68873;BME280;55907;50.806;12.882;2023-04-21T04:31:15;973.3;;;9.2;78.6
68873;BME280;55907;50.806;12.882;2023-04-21T04:34:17;973.3;;;9.3;77.9
68873;BME280;55907;50.806;12.882;2023-04-21T04:37:18;973.4;;;9.4;77.4
68873;BME280;55907;50.806;12.882;2023-04-21T04:40:19;973.4;;;9.5;76.3
68873;BME280;55907;50.806;12.882;2023-04-21T04:43:21;973.4;;;9.6;75.9
68873;BME280;55907;50.806;12.882;2023-04-21T04:46:22;973.4;;;9.8;75.7
68873;BME280;55907;50.806;12.882;2023-04-21T04:49:24;973.5;;;9.8;75.0
68873;BME280;55907;50.806;12.882;2023-04-21T04:52:25;973.4;;;9.8;75.5
68873;BME280;55907;50.806;12.882;2023-04-21T04:55:27;973.4;;;9.8;75.6
68873;BME280;55907;50.806;12.882;2023-04-21T05:01:30;973.4;;;9.8;75.4
68873;BME280;55907;50.806;12.882;2023-04-21T05:04:32;973.4;;;9.9;74.6
68873;BME280;55907;50.806;12.882;2023-04-21T05:07:33;973.4;;;10.1;74.0
68873;BME280;55907;50.806;12.882;2023-04-21T05:10:35;973.4;;;10.8;71.3
68873;BME280;55907;50.806;12.882;2023-04-21T05:13:36;973.4;;;12.0;68.0
68873;BME280;55907;50.806;12.882;2023-04-21T05:16:38;973.5;;;13.5;61.6
68873;BME280;55907;50.806;12.882;2023-04-21T05:19:39;973.5;;;14.9;58.2
68873;BME280;55907;50.806;12.882;2023-04-21T05:22:41;973.5;;;15.7;54.6
68873;BME280;55907;50.806;12.882;2023-04-21T05:25:43;973.5;;;16.5;52.4
68873;BME280;55907;50.806;12.882;2023-04-21T05:28:44;973.6;;;17.5;48.2
68873;BME280;55907;50.806;12.882;2023-04-21T05:31:45;973.6;;;18.1;47.7
68873;BME280;55907;50.806;12.882;2023-04-21T05:34:46;973.6;;;18.8;44.6
68873;BME280;55907;50.806;12.882;2023-04-21T05:40:51;973.6;;;19.7;43.8
68873;BME280;55907;50.806;12.882;2023-04-21T05:43:51;973.6;;;19.9;43.3
68873;BME280;55907;50.806;12.882;2023-04-21T05:46:52;973.6;;;20.1;42.8
68873;BME280;55907;50.806;12.882;2023-04-21T05:49:54;973.6;;;20.1;42.1
68873;BME280;55907;50.806;12.882;2023-04-21T05:52:55;973.6;;;19.9;42.2
68873;BME280;55907;50.806;12.882;2023-04-21T05:55:56;973.7;;;20.1;42.3
68873;BME280;55907;50.806;12.882;2023-04-21T05:58:58;973.6;;;20.2;41.3
68873;BME280;55907;50.806;12.882;2023-04-21T06:01:59;973.6;;;19.6;41.7
68873;BME280;55907;50.806;12.882;2023-04-21T06:05:01;973.5;;;19.4;43.0
68873;BME280;55907;50.806;12.882;2023-04-21T06:08:02;973.5;;;19.2;42.3
68873;BME280;55907;50.806;12.882;2023-04-21T06:11:04;973.5;;;19.3;41.6
68873;BME280;55907;50.806;12.882;2023-04-21T06:14:05;973.5;;;19.6;41.4
68873;BME280;55907;50.806;12.882;2023-04-21T06:17:06;973.5;;;19.9;41.2
68873;BME280;55907;50.806;12.882;2023-04-21T06:20:09;973.5;;;19.7;40.8
68873;BME280;55907;50.806;12.882;2023-04-21T06:23:09;973.5;;;19.5;41.1
68873;BME280;55907;50.806;12.882;2023-04-21T06:26:11;973.6;;;19.1;41.4
68873;BME280;55907;50.806;12.882;2023-04-21T06:29:12;973.5;;;19.0;41.9
68873;BME280;55907;50.806;12.882;2023-04-21T06:32:13;973.5;;;19.0;42.2
68873;BME280;55907;50.806;12.882;2023-04-21T06:35:15;973.5;;;19.6;41.3
68873;BME280;55907;50.806;12.882;2023-04-21T06:38:16;973.5;;;20.4;40.3
68873;BME280;55907;50.806;12.882;2023-04-21T06:41:18;973.5;;;20.9;38.8
68873;BME280;55907;50.806;12.882;2023-04-21T06:44:19;973.5;;;21.0;37.1
68873;BME280;55907;50.806;12.882;2023-04-21T06:47:21;973.4;;;20.8;36.9
68873;BME280;55907;50.806;12.882;2023-04-21T06:50:22;973.4;;;20.8;37.3
68873;BME280;55907;50.806;12.882;2023-04-21T06:53:23;973.4;;;21.0;37.0
68873;BME280;55907;50.806;12.882;2023-04-21T06:56:25;973.4;;;21.1;36.0
68873;BME280;55907;50.806;12.882;2023-04-21T06:59:26;973.3;;;20.9;36.7
68873;BME280;55907;50.806;12.882;2023-04-21T07:02:28;973.3;;;20.8;36.8
68873;BME280;55907;50.806;12.882;2023-04-21T07:05:29;973.3;;;21.0;36.7
68873;BME280;55907;50.806;12.882;2023-04-21T07:08:31;973.2;;;21.1;36.0
68873;BME280;55907;50.806;12.882;2023-04-21T07:11:32;973.2;;;21.4;36.2
68873;BME280;55907;50.806;12.882;2023-04-21T07:14:33;973.3;;;21.7;35.8
68873;BME280;55907;50.806;12.882;2023-04-21T07:17:35;973.3;;;22.1;34.8
68873;BME280;55907;50.806;12.882;2023-04-21T07:20:36;973.2;;;21.8;34.9
68873;BME280;55907;50.806;12.882;2023-04-21T07:23:37;973.2;;;21.8;34.7
68873;BME280;55907;50.806;12.882;2023-04-21T07:26:39;973.3;;;22.0;35.4
68873;BME280;55907;50.806;12.882;2023-04-21T07:29:40;973.3;;;21.9;34.1
68873;BME280;55907;50.806;12.882;2023-04-21T07:32:42;973.3;;;21.9;35.1
68873;BME280;55907;50.806;12.882;2023-04-21T07:35:43;973.2;;;21.8;35.0
68873;BME280;55907;50.806;12.882;2023-04-21T07:38:44;973.2;;;21.8;35.2
68873;BME280;55907;50.806;12.882;2023-04-21T07:41:46;973.1;;;22.0;34.4
68873;BME280;55907;50.806;12.882;2023-04-21T07:44:47;973.0;;;21.8;34.4
68873;BME280;55907;50.806;12.882;2023-04-21T07:47:48;973.1;;;21.5;34.7
68873;BME280;55907;50.806;12.882;2023-04-21T07:50:50;973.2;;;21.4;35.4
68873;BME280;55907;50.806;12.882;2023-04-21T07:53:51;973.2;;;20.9;35.6
68873;BME280;55907;50.806;12.882;2023-04-21T07:56:53;973.2;;;20.8;36.1
68873;BME280;55907;50.806;12.882;2023-04-21T07:59:54;973.2;;;20.5;37.1
68873;BME280;55907;50.806;12.882;2023-04-21T08:02:55;973.2;;;20.4;37.1
68873;BME280;55907;50.806;12.882;2023-04-21T08:05:57;973.1;;;20.6;37.6
68873;BME280;55907;50.806;12.882;2023-04-21T08:08:58;973.2;;;20.4;37.3
68873;BME280;55907;50.806;12.882;2023-04-21T08:12:00;973.2;;;20.3;37.5
68873;BME280;55907;50.806;12.882;2023-04-21T08:15:01;973.2;;;20.7;37.8
68873;BME280;55907;50.806;12.882;2023-04-21T08:18:02;973.3;;;20.5;37.6
68873;BME280;55907;50.806;12.882;2023-04-21T08:21:04;973.3;;;20.2;37.8
68873;BME280;55907;50.806;12.882;2023-04-21T08:24:05;973.3;;;20.5;37.8
68873;BME280;55907;50.806;12.882;2023-04-21T08:27:07;973.2;;;21.0;37.1
68873;BME280;55907;50.806;12.882;2023-04-21T08:30:09;973.2;;;20.8;36.8
68873;BME280;55907;50.806;12.882;2023-04-21T08:33:09;973.3;;;21.2;36.7
68873;BME280;55907;50.806;12.882;2023-04-21T08:36:11;973.3;;;21.1;36.2
68873;BME280;55907;50.806;12.882;2023-04-21T08:39:13;973.3;;;21.5;36.1
68873;BME280;55907;50.806;12.882;2023-04-21T08:42:15;973.3;;;21.6;35.9
68873;BME280;55907;50.806;12.882;2023-04-21T08:45:15;973.3;;;21.9;35.4
68873;BME280;55907;50.806;12.882;2023-04-21T08:48:17;973.2;;;22.1;34.2
68873;BME280;55907;50.806;12.882;2023-04-21T08:51:21;973.2;;;22.5;34.3
68873;BME280;55907;50.806;12.882;2023-04-21T08:54:19;973.2;;;22.9;33.3
68873;BME280;55907;50.806;12.882;2023-04-21T08:57:21;973.2;;;23.6;32.0
68873;BME280;55907;50.806;12.882;2023-04-21T09:00:22;973.3;;;24.0;31.6
68873;BME280;55907;50.806;12.882;2023-04-21T09:03:25;973.1;;;23.8;31.0
68873;BME280;55907;50.806;12.882;2023-04-21T09:06:39;973.3;;;24.0;31.6
68873;BME280;55907;50.806;12.882;2023-04-21T09:09:26;973.3;;;24.3;31.9
68873;BME280;55907;50.806;12.882;2023-04-21T09:12:28;973.3;;;24.9;30.3
68873;BME280;55907;50.806;12.882;2023-04-21T09:15:37;973.3;;;25.0;29.8
68873;BME280;55907;50.806;12.882;2023-04-21T09:18:30;973.2;;;24.8;29.5
68873;BME280;55907;50.806;12.882;2023-04-21T09:21:31;973.2;;;24.5;30.2
68873;BME280;55907;50.806;12.882;2023-04-21T09:24:33;973.2;;;24.2;30.4
68873;BME280;55907;50.806;12.882;2023-04-21T09:27:34;973.2;;;24.5;30.1
68873;BME280;55907;50.806;12.882;2023-04-21T09:30:36;973.2;;;24.5;29.6
68873;BME280;55907;50.806;12.882;2023-04-21T09:33:37;973.3;;;23.9;30.5
68873;BME280;55907;50.806;12.882;2023-04-21T09:36:38;973.2;;;23.8;31.4
68873;BME280;55907;50.806;12.882;2023-04-21T09:39:44;973.2;;;23.5;30.8
68873;BME280;55907;50.806;12.882;2023-04-21T09:42:41;973.1;;;23.6;30.9
68873;BME280;55907;50.806;12.882;2023-04-21T09:45:42;973.2;;;23.5;31.0
68873;BME280;55907;50.806;12.882;2023-04-21T09:48:45;973.1;;;23.3;30.8
68873;BME280;55907;50.806;12.882;2023-04-21T09:51:45;973.1;;;23.7;31.1
68873;BME280;55907;50.806;12.882;2023-04-21T09:54:49;973.2;;;23.6;31.4
68873;BME280;55907;50.806;12.882;2023-04-21T09:57:48;973.1;;;23.4;31.0
68873;BME280;55907;50.806;12.882;2023-04-21T10:00:50;973.1;;;23.8;31.1
68873;BME280;55907;50.806;12.882;2023-04-21T10:03:51;973.2;;;23.6;31.0
68873;BME280;55907;50.806;12.882;2023-04-21T10:06:53;973.1;;;23.6;31.4
68873;BME280;55907;50.806;12.882;2023-04-21T10:09:55;973.0;;;23.5;31.5
68873;BME280;55907;50.806;12.882;2023-04-21T10:12:56;973.0;;;23.5;31.4
68873;BME280;55907;50.806;12.882;2023-04-21T10:16:01;973.0;;;23.8;31.1
68873;BME280;55907;50.806;12.882;2023-04-21T10:18:58;973.0;;;23.1;31.9
68873;BME280;55907;50.806;12.882;2023-04-21T10:21:59;973.0;;;22.8;32.9
68873;BME280;55907;50.806;12.882;2023-04-21T10:25:02;972.9;;;22.1;33.9
68873;BME280;55907;50.806;12.882;2023-04-21T10:28:04;972.8;;;21.4;35.2
68873;BME280;55907;50.806;12.882;2023-04-21T10:31:15;972.9;;;20.7;36.0
68873;BME280;55907;50.806;12.882;2023-04-21T10:34:11;972.9;;;20.5;37.1
68873;BME280;55907;50.806;12.882;2023-04-21T10:37:16;972.9;;;20.9;35.9
68873;BME280;55907;50.806;12.882;2023-04-21T10:49:21;972.9;;;22.3;33.4
68873;BME280;55907;50.806;12.882;2023-04-21T10:52:13;972.9;;;22.3;32.7
68873;BME280;55907;50.806;12.882;2023-04-21T10:55:15;972.8;;;22.4;32.7
68873;BME280;55907;50.806;12.882;2023-04-21T10:58:16;972.8;;;22.1;33.1
68873;BME280;55907;50.806;12.882;2023-04-21T11:01:17;972.9;;;21.6;34.2
68873;BME280;55907;50.806;12.882;2023-04-21T11:04:20;972.8;;;21.3;35.3
68873;BME280;55907;50.806;12.882;2023-04-21T11:10:22;972.8;;;20.7;36.5
68873;BME280;55907;50.806;12.882;2023-04-21T11:13:24;972.8;;;20.6;36.3
68873;BME280;55907;50.806;12.882;2023-04-21T11:16:24;972.8;;;20.2;36.2
68873;BME280;55907;50.806;12.882;2023-04-21T11:19:26;972.8;;;20.0;37.3
68873;BME280;55907;50.806;12.882;2023-04-21T11:22:27;972.9;;;20.0;37.6
68873;BME280;55907;50.806;12.882;2023-04-21T11:25:29;972.8;;;19.8;36.9
68873;BME280;55907;50.806;12.882;2023-04-21T11:28:30;972.7;;;19.9;37.0
68873;BME280;55907;50.806;12.882;2023-04-21T11:31:32;972.8;;;20.2;36.6
68873;BME280;55907;50.806;12.882;2023-04-21T11:34:35;972.7;;;20.2;36.9
68873;BME280;55907;50.806;12.882;2023-04-21T11:37:35;972.8;;;20.0;36.2
68873;BME280;55907;50.806;12.882;2023-04-21T11:40:44;972.7;;;19.9;37.0
68873;BME280;55907;50.806;12.882;2023-04-21T11:43:37;972.6;;;19.8;36.8
68873;BME280;55907;50.806;12.882;2023-04-21T11:46:43;972.6;;;20.5;36.2
68873;BME280;55907;50.806;12.882;2023-04-21T11:49:44;972.6;;;21.2;33.9
68873;BME280;55907;50.806;12.882;2023-04-21T11:52:42;972.6;;;21.3;33.8
68873;BME280;55907;50.806;12.882;2023-04-21T11:55:44;972.6;;;21.0;33.0
68873;BME280;55907;50.806;12.882;2023-04-21T11:58:45;972.6;;;20.9;33.4
68873;BME280;55907;50.806;12.882;2023-04-21T12:01:47;972.5;;;21.3;31.3
68873;BME280;55907;50.806;12.882;2023-04-21T12:04:55;972.5;;;21.6;31.9
68873;BME280;55907;50.806;12.882;2023-04-21T12:13:51;972.5;;;20.5;32.5
68873;BME280;55907;50.806;12.882;2023-04-21T12:16:55;972.4;;;20.9;32.7
68873;BME280;55907;50.806;12.882;2023-04-21T12:19:54;972.5;;;21.3;32.8
68873;BME280;55907;50.806;12.882;2023-04-21T12:22:56;972.6;;;20.6;33.5
68873;BME280;55907;50.806;12.882;2023-04-21T12:25:57;972.4;;;20.6;34.0
68873;BME280;55907;50.806;12.882;2023-04-21T12:28:59;972.5;;;20.9;32.9
68873;BME280;55907;50.806;12.882;2023-04-21T12:32:00;972.3;;;21.3;31.5
68873;BME280;55907;50.806;12.882;2023-04-21T12:35:01;972.4;;;21.3;31.2
68873;BME280;55907;50.806;12.882;2023-04-21T12:38:03;972.4;;;21.0;32.1
68873;BME280;55907;50.806;12.882;2023-04-21T12:41:04;972.4;;;20.9;32.7
68873;BME280;55907;50.806;12.882;2023-04-21T12:44:06;972.4;;;20.5;34.1
68873;BME280;55907;50.806;12.882;2023-04-21T12:47:07;972.3;;;21.0;34.1
68873;BME280;55907;50.806;12.882;2023-04-21T12:53:10;972.4;;;21.4;32.9
68873;BME280;55907;50.806;12.882;2023-04-21T12:56:11;972.3;;;21.5;32.8
68873;BME280;55907;50.806;12.882;2023-04-21T12:59:13;972.2;;;21.3;32.8
68873;BME280;55907;50.806;12.882;2023-04-21T13:02:14;972.3;;;21.0;33.6
68873;BME280;55907;50.806;12.882;2023-04-21T13:05:16;972.2;;;20.8;34.4
68873;BME280;55907;50.806;12.882;2023-04-21T13:08:17;972.3;;;20.5;34.3
68873;BME280;55907;50.806;12.882;2023-04-21T13:11:18;972.3;;;20.7;34.3
68873;BME280;55907;50.806;12.882;2023-04-21T13:17:21;972.2;;;20.6;35.1
68873;BME280;55907;50.806;12.882;2023-04-21T13:20:23;972.1;;;20.5;34.6
68873;BME280;55907;50.806;12.882;2023-04-21T13:23:24;972.2;;;20.2;34.3
68873;BME280;55907;50.806;12.882;2023-04-21T13:26:26;972.1;;;19.9;35.3
68873;BME280;55907;50.806;12.882;2023-04-21T13:29:27;972.2;;;19.9;35.7
68873;BME280;55907;50.806;12.882;2023-04-21T13:32:28;972.1;;;19.9;35.6
68873;BME280;55907;50.806;12.882;2023-04-21T13:35:30;972.1;;;19.8;35.8
68873;BME280;55907;50.806;12.882;2023-04-21T13:38:31;972.1;;;19.9;35.4
68873;BME280;55907;50.806;12.882;2023-04-21T13:41:33;972.0;;;19.8;35.7
68873;BME280;55907;50.806;12.882;2023-04-21T13:44:34;971.9;;;19.8;35.7
68873;BME280;55907;50.806;12.882;2023-04-21T13:47:36;971.8;;;19.9;35.6
68873;BME280;55907;50.806;12.882;2023-04-21T13:50:37;971.8;;;19.9;35.5
68873;BME280;55907;50.806;12.882;2023-04-21T13:53:38;971.7;;;19.7;34.6
68873;BME280;55907;50.806;12.882;2023-04-21T13:56:40;971.7;;;19.6;35.0
68873;BME280;55907;50.806;12.882;2023-04-21T13:59:41;971.7;;;19.6;35.3
68873;BME280;55907;50.806;12.882;2023-04-21T14:02:43;971.7;;;19.7;35.4
68873;BME280;55907;50.806;12.882;2023-04-21T14:05:44;971.7;;;19.9;35.4
68873;BME280;55907;50.806;12.882;2023-04-21T14:08:45;971.6;;;19.9;34.9
68873;BME280;55907;50.806;12.882;2023-04-21T14:11:47;971.5;;;20.2;34.9
68873;BME280;55907;50.806;12.882;2023-04-21T14:14:48;971.5;;;20.5;34.0
68873;BME280;55907;50.806;12.882;2023-04-21T14:17:50;971.5;;;20.3;33.3
68873;BME280;55907;50.806;12.882;2023-04-21T14:20:51;971.4;;;20.3;33.1
68873;BME280;55907;50.806;12.882;2023-04-21T14:23:53;971.4;;;20.7;33.4
68873;BME280;55907;50.806;12.882;2023-04-21T14:26:54;971.5;;;20.8;33.6
68873;BME280;55907;50.806;12.882;2023-04-21T14:29:55;971.4;;;20.7;33.0
68873;BME280;55907;50.806;12.882;2023-04-21T14:32:57;971.4;;;20.6;32.6
68873;BME280;55907;50.806;12.882;2023-04-21T14:35:58;971.4;;;20.7;32.8
68873;BME280;55907;50.806;12.882;2023-04-21T14:39:00;971.3;;;20.7;33.2
68873;BME280;55907;50.806;12.882;2023-04-21T14:42:01;971.3;;;20.6;33.1
68873;BME280;55907;50.806;12.882;2023-04-21T14:45:03;971.3;;;21.1;33.1
68873;BME280;55907;50.806;12.882;2023-04-21T14:48:04;971.2;;;21.4;32.9
68873;BME280;55907;50.806;12.882;2023-04-21T14:51:05;971.1;;;21.5;32.9
68873;BME280;55907;50.806;12.882;2023-04-21T14:54:07;971.1;;;21.5;32.0
68873;BME280;55907;50.806;12.882;2023-04-21T14:57:08;971.3;;;21.2;31.9
68873;BME280;55907;50.806;12.882;2023-04-21T15:00:10;971.1;;;20.9;32.5
68873;BME280;55907;50.806;12.882;2023-04-21T15:03:11;971.1;;;20.7;33.3
68873;BME280;55907;50.806;12.882;2023-04-21T15:06:13;971.2;;;20.3;34.2
68873;BME280;55907;50.806;12.882;2023-04-21T15:09:14;971.1;;;20.0;34.2
68873;BME280;55907;50.806;12.882;2023-04-21T15:12:15;971.1;;;20.1;34.4
68873;BME280;55907;50.806;12.882;2023-04-21T15:15:17;971.0;;;20.3;34.3
68873;BME280;55907;50.806;12.882;2023-04-21T15:18:18;971.0;;;20.4;33.5
68873;BME280;55907;50.806;12.882;2023-04-21T15:21:20;971.0;;;20.3;33.2
68873;BME280;55907;50.806;12.882;2023-04-21T15:24:21;970.9;;;20.3;32.8
68873;BME280;55907;50.806;12.882;2023-04-21T15:27:23;970.9;;;20.4;33.0
68873;BME280;55907;50.806;12.882;2023-04-21T15:30:24;971.0;;;20.3;33.1
68873;BME280;55907;50.806;12.882;2023-04-21T15:33:25;970.9;;;20.2;33.3
68873;BME280;55907;50.806;12.882;2023-04-21T15:36:27;970.9;;;20.1;33.2
68873;BME280;55907;50.806;12.882;2023-04-21T15:39:28;970.9;;;20.2;33.4
68873;BME280;55907;50.806;12.882;2023-04-21T15:42:30;970.8;;;19.9;34.0
68873;BME280;55907;50.806;12.882;2023-04-21T15:45:31;970.8;;;19.8;33.5
68873;BME280;55907;50.806;12.882;2023-04-21T15:48:33;970.8;;;19.5;34.2
68873;BME280;55907;50.806;12.882;2023-04-21T15:51:34;970.9;;;19.4;34.8
68873;BME280;55907;50.806;12.882;2023-04-21T15:54:35;970.8;;;19.5;35.1
68873;BME280;55907;50.806;12.882;2023-04-21T15:57:37;970.7;;;19.5;35.2
68873;BME280;55907;50.806;12.882;2023-04-21T16:00:38;970.8;;;19.5;35.7
68873;BME280;55907;50.806;12.882;2023-04-21T16:03:40;970.8;;;19.6;35.6
68873;BME280;55907;50.806;12.882;2023-04-21T16:06:41;970.8;;;19.8;35.5
68873;BME280;55907;50.806;12.882;2023-04-21T16:09:43;970.8;;;19.8;35.2
68873;BME280;55907;50.806;12.882;2023-04-21T16:12:44;970.7;;;19.8;34.1
68873;BME280;55907;50.806;12.882;2023-04-21T16:15:46;970.8;;;19.5;34.8
68873;BME280;55907;50.806;12.882;2023-04-21T16:18:47;970.7;;;19.3;35.2
68873;BME280;55907;50.806;12.882;2023-04-21T16:21:48;970.6;;;19.2;35.7
68873;BME280;55907;50.806;12.882;2023-04-21T16:24:50;970.7;;;19.0;36.0
68873;BME280;55907;50.806;12.882;2023-04-21T16:27:51;970.7;;;19.0;36.3
68873;BME280;55907;50.806;12.882;2023-04-21T16:30:53;970.6;;;19.0;36.5
68873;BME280;55907;50.806;12.882;2023-04-21T16:33:54;970.6;;;19.0;36.9
68873;BME280;55907;50.806;12.882;2023-04-21T16:36:56;970.6;;;19.0;36.6
68873;BME280;55907;50.806;12.882;2023-04-21T16:39:57;970.5;;;18.9;36.8
68873;BME280;55907;50.806;12.882;2023-04-21T16:46:00;970.5;;;18.8;35.6
68873;BME280;55907;50.806;12.882;2023-04-21T16:49:01;970.5;;;18.8;35.6
68873;BME280;55907;50.806;12.882;2023-04-21T16:52:03;970.5;;;18.7;35.8
68873;BME280;55907;50.806;12.882;2023-04-21T16:55:04;970.5;;;18.8;36.4
68873;BME280;55907;50.806;12.882;2023-04-21T16:58:06;970.5;;;18.7;36.6
68873;BME280;55907;50.806;12.882;2023-04-21T17:01:07;970.5;;;18.5;36.7
68873;BME280;55907;50.806;12.882;2023-04-21T17:04:09;970.5;;;18.4;36.5
68873;BME280;55907;50.806;12.882;2023-04-21T17:12:25;970.5;;;18.2;37.4
68873;BME280;55907;50.806;12.882;2023-04-21T17:12:25;unavailable;;;unavailable;unavailable
68873;BME280;55907;50.806;12.882;2023-04-21T17:13:13;970.5;;;18.2;37.5
68873;BME280;55907;50.806;12.882;2023-04-21T17:16:14;970.5;;;18.2;37.6
68873;BME280;55907;50.806;12.882;2023-04-21T17:19:20;970.5;;;18.1;37.9
68873;BME280;55907;50.806;12.882;2023-04-21T17:22:17;970.5;;;18.0;38.2
68873;BME280;55907;50.806;12.882;2023-04-21T17:29:27;unavailable;;;unavailable;unavailable
68873;BME280;55907;50.806;12.882;2023-04-21T17:29:29;unavailable;;;17.9;unavailable
68873;BME280;55907;50.806;12.882;2023-04-21T17:31:22;970.5;;;17.8;39.0
68873;BME280;55907;50.806;12.882;2023-04-21T17:34:25;970.5;;;17.7;38.9